Time;durP1;ratioP1;P1;durP2;ratioP2;P2;SDS_P1;SDS_P2;PMS_P1;PMS_P2;Temp;Humidity;BMP_temperature;BMP_pressure;BME280_temperature;BME280_humidity;BME280_pressure;Samples;Min_cycle;Max_cycle;Signal;HPM_P1;HPM_P2
2022/01/09 07:32:12;;;;;;;5.80;2.08;;;4.70;92.30;;;;;;5072110;28;20379;-82
2022/01/09 07:56:29;;;;;;;7.93;3.10;;;4.80;91.40;;;;;;5069955;28;20941;-83
2022/01/09 07:58:55;;;;;;;7.63;2.13;;;4.90;91.30;;;;;;5071559;28;20037;-81
2022/01/09 08:01:20;;;;;;;3.28;1.60;;;5.20;90.90;;;;;;5067499;28;20025;-81
2022/01/09 08:03:46;;;;;;;8.02;2.08;;;5.50;90.10;;;;;;5066171;28;20044;-81
2022/01/09 08:06:29;;;;;;;8.30;2.60;;;5.80;89.40;;;;;;5076241;28;20041;-81
2022/01/09 08:08:55;;;;;;;10.02;2.22;;;6.00;88.70;;;;;;5077539;28;20013;-80
2022/01/09 08:11:22;;;;;;;4.50;1.90;;;6.10;87.70;;;;;;5071565;28;20032;-82
2022/01/09 08:13:48;;;;;;;3.60;1.85;;;6.30;87.80;;;;;;5068962;28;20554;-80
2022/01/09 08:16:15;;;;;;;3.47;1.70;;;6.30;87.10;;;;;;5079792;28;20170;-82
2022/01/09 08:18:41;;;;;;;5.88;1.73;;;6.40;86.80;;;;;;5078916;28;20104;-82
2022/01/09 08:21:06;;;;;;;10.45;2.15;;;6.50;86.20;;;;;;5071167;28;20052;-83
2022/01/09 08:23:32;;;;;;;3.55;1.77;;;6.60;86.40;;;;;;5051282;28;20025;-82
2022/01/09 08:25:57;;;;;;;11.50;2.80;;;6.70;86.10;;;;;;5049988;28;20025;-83
2022/01/09 08:31:49;;;;;;;9.63;2.30;;;6.70;85.70;;;;;;5060309;28;20502;-83
2022/01/09 08:34:15;;;;;;;7.78;2.38;;;6.50;86.10;;;;;;5051609;28;20044;-79
2022/01/09 08:36:40;;;;;;;6.22;2.13;;;6.50;86.20;;;;;;5051935;28;20068;-83
2022/01/09 08:39:06;;;;;;;6.68;2.30;;;6.50;86.00;;;;;;5057884;28;20025;-79
2022/01/09 08:41:33;;;;;;;6.63;2.30;;;6.60;85.90;;;;;;5059793;28;20032;-79
2022/01/09 08:44:01;;;;;;;6.72;2.03;;;6.70;85.90;;;;;;5051645;28;20059;-80
2022/01/09 08:46:27;;;;;;;6.38;2.20;;;6.80;85.90;;;;;;5051328;28;20488;-81
2022/01/09 08:48:53;;;;;;;10.30;1.77;;;6.80;85.50;;;;;;5050234;28;20033;-79
2022/01/09 08:51:19;;;;;;;15.65;2.58;;;6.90;85.80;;;;;;5051240;28;20025;-82
2022/01/09 08:53:50;;;;;;;11.10;1.95;;;7.00;85.40;;;;;;5051276;28;20045;-81
2022/01/09 08:56:18;;;;;;;6.88;2.40;;;7.20;85.00;;;;;;5044275;28;20040;-82
2022/01/09 08:58:44;;;;;;;9.65;2.58;;;7.30;85.00;;;;;;5038801;28;20080;-80
2022/01/09 09:01:10;;;;;;;8.88;2.38;;;7.30;84.60;;;;;;5041840;28;20029;-79
2022/01/09 09:03:40;;;;;;;11.15;2.85;;;7.30;84.70;;;;;;5040069;28;20037;-79
2022/01/09 09:06:07;;;;;;;9.93;2.58;;;7.30;84.70;;;;;;5045803;28;20565;-80
2022/01/09 09:08:33;;;;;;;7.90;2.20;;;7.30;84.70;;;;;;5053321;28;20054;-80
2022/01/09 09:10:59;;;;;;;5.05;2.63;;;7.30;84.40;;;;;;5070786;28;20124;-79
2022/01/09 09:13:24;;;;;;;6.25;2.15;;;7.30;84.40;;;;;;5048153;28;20590;-77
2022/01/09 09:15:50;;;;;;;7.75;2.05;;;7.20;84.60;;;;;;5028768;28;20034;-78
2022/01/09 09:18:16;;;;;;;4.95;2.20;;;7.30;84.70;;;;;;5039334;28;20033;-81
2022/01/09 09:20:44;;;;;;;14.02;2.20;;;7.30;84.50;;;;;;5039812;28;20530;-79
2022/01/09 09:23:10;;;;;;;7.95;2.15;;;7.40;84.60;;;;;;5030645;28;20021;-79
2022/01/09 09:25:35;;;;;;;13.70;2.53;;;7.50;84.50;;;;;;5030337;28;20027;-78
2022/01/09 09:28:01;;;;;;;3.97;2.38;;;7.60;84.00;;;;;;5042957;28;20163;-82
2022/01/09 09:30:27;;;;;;;9.23;2.60;;;7.80;83.70;;;;;;5050181;28;20048;-85
2022/01/09 09:32:52;;;;;;;8.32;1.67;;;7.90;83.20;;;;;;5050221;28;20037;-80
2022/01/09 09:35:18;;;;;;;5.65;1.92;;;8.30;82.60;;;;;;5049477;28;20104;-77
2022/01/09 09:37:44;;;;;;;5.30;2.20;;;8.30;82.20;;;;;;5038106;28;20088;-78
2022/01/09 09:40:10;;;;;;;10.30;2.92;;;8.20;82.40;;;;;;5047803;28;20037;-78
2022/01/09 09:42:36;;;;;;;7.78;1.92;;;8.30;82.60;;;;;;5034498;28;20029;-76
2022/01/09 09:45:10;;;;;;;3.05;1.63;;;8.20;82.60;;;;;;5029021;28;20029;-77
2022/01/09 09:47:38;;;;;;;5.05;2.20;;;8.20;82.70;;;;;;5027782;28;20045;-77
2022/01/09 09:50:05;;;;;;;10.13;2.50;;;8.30;83.10;;;;;;5034901;28;20026;-76
2022/01/09 09:52:31;;;;;;;7.53;2.13;;;8.30;82.90;;;;;;5036739;28;20018;-81
2022/01/09 09:54:57;;;;;;;10.13;2.53;;;8.40;82.80;;;;;;5028421;28;20028;-83
2022/01/09 09:57:24;;;;;;;7.63;2.28;;;8.50;82.50;;;;;;5030101;28;20168;-82
2022/01/09 10:00:18;;;;;;;10.05;1.88;;;8.60;82.30;;;;;;5033301;28;20033;-76
2022/01/09 10:02:51;;;;;;;3.97;1.50;;;8.70;82.20;;;;;;5021373;28;20077;-78
2022/01/09 10:05:32;;;;;;;8.38;2.40;;;8.70;82.10;;;;;;5030504;28;20026;-78
2022/01/09 10:08:08;;;;;;;14.25;2.28;;;8.70;82.10;;;;;;5023690;28;20037;-78
2022/01/09 10:10:35;;;;;;;8.15;2.10;;;8.80;82.00;;;;;;5021221;28;20033;-78
2022/01/09 10:13:08;;;;;;;12.13;2.05;;;8.80;81.80;;;;;;5018874;28;20014;-78
2022/01/09 10:15:46;;;;;;;12.07;1.83;;;8.90;81.90;;;;;;5036307;28;20026;-76
2022/01/09 10:18:12;;;;;;;6.30;2.08;;;8.90;81.50;;;;;;5019014;28;20500;-76
2022/01/09 10:20:37;;;;;;;9.38;2.47;;;8.90;81.70;;;;;;5016918;28;20401;-79
2022/01/09 10:23:03;;;;;;;4.88;1.95;;;8.90;81.50;;;;;;5016274;28;20026;-76
2022/01/09 10:25:32;;;;;;;3.97;2.10;;;9.00;81.70;;;;;;5016890;28;20032;-77
2022/01/09 10:27:58;;;;;;;5.03;1.95;;;9.00;81.40;;;;;;5016924;28;20030;-77
2022/01/09 10:30:27;;;;;;;3.85;1.52;;;9.00;81.40;;;;;;5022001;28;20047;-78
2022/01/09 10:33:00;;;;;;;7.60;2.20;;;9.00;81.50;;;;;;5036892;28;20053;-76
2022/01/09 10:35:28;;;;;;;14.35;2.70;;;9.10;81.30;;;;;;5036275;28;20025;-75
2022/01/09 10:38:13;;;;;;;10.75;2.63;;;9.20;80.90;;;;;;5033037;28;20033;-75
2022/01/09 10:40:40;;;;;;;12.05;2.42;;;9.30;80.60;;;;;;5036385;28;20034;-75
2022/01/09 10:43:08;;;;;;;8.70;2.00;;;9.40;80.10;;;;;;5036669;28;20078;-75
2022/01/09 10:45:37;;;;;;;8.02;2.00;;;9.50;80.00;;;;;;5029344;28;20054;-75
2022/01/09 10:48:07;;;;;;;9.05;2.58;;;9.50;79.50;;;;;;5019426;28;20022;-75
2022/01/09 10:50:37;;;;;;;3.72;1.60;;;9.70;79.80;;;;;;5016349;28;20026;-75
2022/01/09 10:53:39;;;;;;;10.07;2.10;;;9.60;79.60;;;;;;5014552;28;20058;-75
2022/01/09 10:56:08;;;;;;;6.97;2.20;;;9.60;79.40;;;;;;5009253;28;20082;-75
2022/01/09 10:58:38;;;;;;;8.52;2.60;;;9.70;79.50;;;;;;5035663;28;20036;-76
2022/01/09 11:01:24;;;;;;;9.07;1.88;;;9.70;79.10;;;;;;5034666;28;20033;-73
2022/01/09 11:04:01;;;;;;;7.70;2.10;;;9.70;79.20;;;;;;5025389;28;20087;-76
2022/01/09 11:06:31;;;;;;;3.58;1.83;;;9.70;78.70;;;;;;5036864;28;20040;-76
2022/01/09 11:08:57;;;;;;;5.18;2.35;;;9.60;79.00;;;;;;5031002;28;20029;-76
2022/01/09 11:13:54;;;;;;;7.63;1.52;;;9.60;78.40;;;;;;5026487;28;20033;-78
2022/01/09 11:16:33;;;;;;;7.25;2.53;;;9.70;78.30;;;;;;5023192;28;20022;-82
2022/01/09 11:19:05;;;;;;;6.03;1.63;;;9.70;78.50;;;;;;5034540;28;20116;-76
2022/01/09 11:21:31;;;;;;;2.60;1.42;;;9.80;78.70;;;;;;5031068;28;20617;-78
2022/01/09 11:24:18;;;;;;;15.35;2.72;;;9.80;78.70;;;;;;5035382;28;20029;-82
2022/01/09 11:26:55;;;;;;;5.90;1.58;;;9.80;78.40;;;;;;5032278;28;20044;-82
2022/01/09 11:29:39;;;;;;;3.65;1.55;;;9.80;78.00;;;;;;5029146;28;20085;-80
2022/01/09 11:32:11;;;;;;;5.68;1.85;;;9.80;78.10;;;;;;5030325;28;20048;-82
2022/01/09 11:34:45;;;;;;;11.73;2.20;;;9.80;78.10;;;;;;5033123;28;20051;-81
2022/01/09 11:37:23;;;;;;;5.85;2.20;;;9.80;78.40;;;;;;5032042;28;20037;-79
2022/01/09 11:39:49;;;;;;;8.45;1.27;;;9.90;78.50;;;;;;5031823;28;20029;-79
2022/01/09 11:42:16;;;;;;;4.28;1.55;;;9.90;78.30;;;;;;5033695;28;20091;-77
2022/01/09 11:44:51;;;;;;;9.02;1.63;;;9.90;78.30;;;;;;5029505;28;20037;-75
2022/01/09 11:47:18;;;;;;;3.60;1.38;;;9.90;77.80;;;;;;5030236;28;20060;-77
2022/01/09 11:49:50;;;;;;;7.10;1.58;;;10.00;78.20;;;;;;5028323;28;20040;-78
2022/01/09 11:52:16;;;;;;;6.53;1.60;;;9.90;77.80;;;;;;5025225;28;20026;-77
2022/01/09 11:54:50;;;;;;;4.43;1.70;;;9.90;78.50;;;;;;5026054;28;20045;-76
2022/01/09 11:57:34;;;;;;;5.72;2.65;;;9.90;78.40;;;;;;5021851;28;20533;-75
2022/01/09 11:59:59;;;;;;;2.70;1.55;;;9.80;78.50;;;;;;5030628;28;20049;-75
2022/01/09 12:02:28;;;;;;;9.65;2.58;;;9.90;78.70;;;;;;5025938;28;20061;-76
2022/01/09 12:04:55;;;;;;;8.82;2.42;;;9.90;78.80;;;;;;5029467;28;20567;-76
2022/01/09 12:07:33;;;;;;;4.57;1.60;;;10.00;78.80;;;;;;5033806;28;20455;-76
2022/01/09 12:10:18;;;;;;;9.05;2.70;;;10.00;78.80;;;;;;5048855;28;20024;-76
2022/01/09 12:12:45;;;;;;;12.35;2.22;;;10.10;78.70;;;;;;5038817;28;20021;-76
2022/01/09 12:15:11;;;;;;;6.63;1.85;;;10.10;78.60;;;;;;5015110;28;20067;-76
2022/01/09 12:17:42;;;;;;;7.10;2.38;;;10.10;78.80;;;;;;5033905;28;20055;-77
2022/01/09 12:20:13;;;;;;;14.40;3.38;;;10.20;78.80;;;;;;5027554;28;20030;-76
2022/01/09 12:22:43;;;;;;;12.25;3.15;;;10.20;78.70;;;;;;5025028;28;20044;-76
2022/01/09 12:25:10;;;;;;;4.35;1.90;;;10.20;78.90;;;;;;5012734;28;20102;-76
2022/01/09 12:27:35;;;;;;;11.88;2.40;;;10.30;78.80;;;;;;5014573;28;20038;-76
2022/01/09 12:30:03;;;;;;;7.05;2.20;;;10.30;79.00;;;;;;5027555;28;20125;-76
2022/01/09 12:32:43;;;;;;;10.98;2.40;;;10.30;78.40;;;;;;5016525;28;20105;-76
2022/01/09 12:35:19;;;;;;;;;;;10.30;78.50;;;;;;5024777;28;20033;-76
2022/01/09 12:38:00;;;;;;;8.07;2.15;;;10.40;78.40;;;;;;5034132;28;19915;-76
2022/01/09 12:40:35;;;;;;;10.23;2.20;;;10.40;78.00;;;;;;5014293;28;20033;-76
2022/01/09 12:43:02;;;;;;;8.55;2.03;;;10.40;77.80;;;;;;5023722;28;20053;-76
2022/01/09 12:45:32;;;;;;;13.70;2.42;;;10.30;77.40;;;;;;5014397;28;20022;-76
2022/01/09 12:48:00;;;;;;;5.80;1.50;;;10.30;76.70;;;;;;5014509;28;20022;-76
2022/01/09 12:50:28;;;;;;;8.25;2.67;;;10.30;77.80;;;;;;5017415;28;20069;-76
2022/01/09 12:53:12;;;;;;;9.27;1.60;;;10.30;77.80;;;;;;5021234;28;20030;-76
2022/01/09 12:56:04;;;;;;;9.95;2.40;;;10.30;78.10;;;;;;5014469;28;20057;-76
2022/01/09 12:58:48;;;;;;;7.32;2.33;;;10.30;78.00;;;;;;5014505;28;20064;-76
2022/01/09 13:01:17;;;;;;;10.23;2.30;;;10.30;78.00;;;;;;5019846;28;20034;-77
2022/01/09 13:03:47;;;;;;;11.27;2.67;;;10.20;78.20;;;;;;5017232;28;20030;-76
2022/01/09 13:06:14;;;;;;;;;;;10.10;78.40;;;;;;5021455;28;20244;-76
2022/01/09 13:08:46;;;;;;;6.30;2.05;;;10.00;78.40;;;;;;5026311;28;19909;-76
2022/01/09 13:11:19;;;;;;;6.45;1.73;;;10.00;78.40;;;;;;5039268;28;20032;-77
2022/01/09 13:13:48;;;;;;;6.75;2.17;;;10.00;78.70;;;;;;5027951;28;20025;-77
2022/01/09 13:16:28;;;;;;;6.22;2.45;;;9.90;78.70;;;;;;5023134;28;20022;-77
2022/01/09 13:18:59;;;;;;;1.88;1.15;;;9.90;78.90;;;;;;5024089;28;20022;-76
2022/01/09 13:21:38;;;;;;;6.22;2.35;;;9.70;78.60;;;;;;5027579;28;20037;-76
2022/01/09 13:24:10;;;;;;;5.18;2.03;;;9.80;78.90;;;;;;5027519;28;20579;-77
2022/01/09 13:26:57;;;;;;;9.20;3.25;;;9.80;78.80;;;;;;5028258;28;20472;-77
2022/01/09 13:29:32;;;;;;;6.43;2.60;;;9.80;78.90;;;;;;5028972;28;20045;-76
2022/01/09 13:32:07;;;;;;;10.18;3.00;;;9.80;79.00;;;;;;5026992;28;20022;-76
2022/01/09 13:34:40;;;;;;;11.35;4.07;;;9.80;79.20;;;;;;5026765;28;20021;-76
2022/01/09 13:37:14;;;;;;;12.90;4.35;;;9.90;79.30;;;;;;5027577;28;20013;-76
2022/01/09 13:39:44;;;;;;;13.20;4.10;;;10.00;79.30;;;;;;5027088;28;20437;-76
2022/01/09 13:42:13;;;;;;;12.27;4.07;;;10.10;79.40;;;;;;5025529;28;20131;-77
2022/01/09 13:44:42;;;;;;;14.93;3.78;;;10.20;79.40;;;;;;5039597;28;20049;-76
2022/01/09 13:47:17;;;;;;;11.35;4.40;;;10.20;79.10;;;;;;5030271;28;20026;-76
2022/01/09 13:49:46;;;;;;;24.13;4.10;;;10.20;79.10;;;;;;5028641;28;20026;-76
2022/01/09 13:52:17;;;;;;;12.27;3.22;;;10.20;79.00;;;;;;5032804;28;20022;-76
2022/01/09 13:55:12;;;;;;;12.27;3.13;;;10.30;79.30;;;;;;5032881;28;20018;-76
2022/01/09 13:57:52;;;;;;;18.23;3.78;;;10.20;78.90;;;;;;5026181;28;20655;-76
2022/01/09 14:00:21;;;;;;;10.45;3.13;;;10.20;79.40;;;;;;5025663;28;20030;-76
2022/01/09 14:02:49;;;;;;;16.58;4.22;;;10.20;79.70;;;;;;5026421;28;20046;-76
2022/01/09 14:05:18;;;;;;;12.15;3.80;;;10.10;79.40;;;;;;5026344;28;20041;-76
2022/01/09 14:07:54;;;;;;;13.00;3.38;;;10.20;80.00;;;;;;5017478;28;20022;-76
2022/01/09 14:10:31;;;;;;;12.85;3.33;;;10.20;79.80;;;;;;5034468;28;20033;-75
2022/01/09 14:12:57;;;;;;;10.45;2.95;;;10.30;79.80;;;;;;5052861;28;20047;-76
2022/01/09 14:15:23;;;;;;;9.93;4.15;;;10.30;79.80;;;;;;5033968;28;20025;-76
2022/01/09 14:17:50;;;;;;;16.75;4.72;;;10.30;79.90;;;;;;5026295;28;20018;-76
2022/01/09 14:20:26;;;;;;;12.32;3.63;;;10.30;79.80;;;;;;5045126;28;20028;-75
2022/01/09 14:23:10;;;;;;;8.40;3.42;;;10.30;79.90;;;;;;5041213;28;20106;-75
2022/01/09 14:25:38;;;;;;;12.13;4.55;;;10.20;80.00;;;;;;5046521;28;20455;-76
2022/01/09 14:28:09;;;;;;;12.43;3.90;;;10.20;80.40;;;;;;5022297;28;20028;-76
2022/01/09 14:30:43;;;;;;;12.18;4.47;;;10.10;80.40;;;;;;5025078;28;20046;-76
2022/01/09 14:33:18;;;;;;;13.18;3.55;;;10.10;80.80;;;;;;5028407;28;20037;-75
2022/01/09 14:35:46;;;;;;;8.10;3.40;;;10.10;80.90;;;;;;5030580;28;20026;-76
2022/01/09 14:38:33;;;;;;;16.77;4.10;;;10.10;80.80;;;;;;5030417;28;20163;-76
2022/01/09 14:41:02;;;;;;;6.82;3.22;;;10.10;80.90;;;;;;5034589;28;20070;-76
2022/01/09 14:43:30;;;;;;;6.97;2.83;;;10.20;81.10;;;;;;5025696;28;20017;-76
2022/01/09 14:45:57;;;;;;;9.95;3.25;;;10.10;81.00;;;;;;5026615;28;20026;-75
2022/01/09 14:48:25;;;;;;;6.22;2.85;;;10.10;81.20;;;;;;5016118;28;20082;-75
2022/01/09 14:50:52;;;;;;;15.15;3.70;;;10.10;81.80;;;;;;5018191;28;20124;-77
2022/01/09 14:53:19;;;;;;;11.10;3.38;;;10.10;81.80;;;;;;5021204;28;20022;-77
2022/01/09 14:55:45;;;;;;;7.20;3.67;;;10.20;81.90;;;;;;5017473;28;20029;-79
2022/01/09 14:58:13;;;;;;;14.50;4.28;;;10.20;82.00;;;;;;5023278;28;20014;-79
2022/01/09 15:00:39;;;;;;;12.15;3.97;;;10.20;81.80;;;;;;5025821;28;20571;-77
2022/01/09 15:03:04;;;;;;;11.25;3.70;;;10.20;82.50;;;;;;5021281;28;20030;-77
2022/01/09 15:05:33;;;;;;;10.18;3.65;;;10.20;82.20;;;;;;5024846;28;20093;-77
2022/01/09 15:08:02;;;;;;;10.32;4.20;;;10.20;81.80;;;;;;5024342;28;20594;-77
2022/01/09 15:10:29;;;;;;;12.57;4.18;;;10.20;82.20;;;;;;5025213;28;20101;-77
2022/01/09 15:12:56;;;;;;;14.48;3.83;;;10.10;82.20;;;;;;5023908;28;20021;-77
2022/01/09 15:15:22;;;;;;;6.90;2.58;;;10.10;82.20;;;;;;5014767;28;20105;-77
2022/01/09 15:17:50;;;;;;;9.45;3.85;;;10.20;82.20;;;;;;5036769;28;20029;-77
2022/01/09 15:20:21;;;;;;;12.27;4.07;;;10.20;81.90;;;;;;5020173;28;20033;-77
2022/01/09 15:22:49;;;;;;;8.93;3.10;;;10.20;81.90;;;;;;5025149;28;20480;-76
2022/01/09 15:25:15;;;;;;;12.30;2.78;;;10.20;81.80;;;;;;5017504;28;20029;-77
2022/01/09 15:27:42;;;;;;;11.82;3.80;;;10.20;81.80;;;;;;5015249;28;20050;-77
2022/01/09 15:30:11;;;;;;;9.77;3.15;;;10.20;82.00;;;;;;5022240;28;20050;-77
2022/01/09 15:32:37;;;;;;;9.68;3.65;;;10.10;82.10;;;;;;5017146;28;20025;-77
2022/01/09 15:35:06;;;;;;;7.40;3.55;;;10.10;82.20;;;;;;5022058;28;20044;-76
2022/01/09 15:37:35;;;;;;;7.38;2.83;;;10.10;82.10;;;;;;5024937;28;20096;-76
2022/01/09 15:40:02;;;;;;;6.00;2.90;;;10.10;82.00;;;;;;5021004;28;20089;-76
2022/01/09 15:42:28;;;;;;;11.10;3.00;;;10.10;82.10;;;;;;5021334;28;20033;-77
2022/01/09 15:44:53;;;;;;;8.70;3.45;;;10.10;82.10;;;;;;5018686;28;20044;-77
2022/01/09 15:47:19;;;;;;;7.65;2.92;;;10.10;82.00;;;;;;5021057;28;20026;-76
2022/01/09 15:49:45;;;;;;;8.75;3.25;;;10.10;82.30;;;;;;5017873;28;20871;-76
2022/01/09 15:52:10;;;;;;;9.02;3.42;;;10.10;82.40;;;;;;5029368;28;20807;-77
2022/01/09 15:54:41;;;;;;;7.70;3.72;;;10.10;82.10;;;;;;5019048;28;20021;-78
2022/01/09 15:57:08;;;;;;;;;;;10.00;82.30;;;;;;5019156;28;20021;-77
2022/01/09 15:59:34;;;;;;;10.82;3.58;;;10.00;82.20;;;;;;5025013;28;19905;-77
2022/01/09 16:02:00;;;;;;;13.27;3.05;;;10.00;82.50;;;;;;5016972;28;20431;-77
2022/01/09 16:04:26;;;;;;;8.95;2.75;;;10.00;82.40;;;;;;5014855;28;20034;-75
2022/01/09 16:06:52;;;;;;;18.95;4.78;;;10.10;82.60;;;;;;5023094;28;20064;-77
2022/01/09 16:09:18;;;;;;;15.45;4.93;;;10.00;82.80;;;;;;5031709;28;20099;-77
2022/01/09 16:11:44;;;;;;;10.77;3.22;;;10.00;82.90;;;;;;5015914;28;20033;-77
2022/01/09 16:14:10;;;;;;;13.52;4.25;;;9.90;82.90;;;;;;5029195;28;20533;-76
2022/01/09 16:16:39;;;;;;;12.75;4.82;;;9.90;83.00;;;;;;5019913;28;20026;-78
2022/01/09 16:19:04;;;;;;;11.00;5.05;;;9.90;83.30;;;;;;5017109;28;20832;-77
2022/01/09 16:21:30;;;;;;;10.13;4.30;;;9.90;83.40;;;;;;5021057;28;20060;-78
2022/01/09 16:23:56;;;;;;;13.35;5.43;;;9.90;83.60;;;;;;5019246;28;20483;-78
2022/01/09 16:26:23;;;;;;;11.90;5.82;;;9.80;83.80;;;;;;5028559;28;20164;-78
2022/01/09 16:28:51;;;;;;;9.02;5.35;;;9.80;83.80;;;;;;5018528;28;20065;-76
2022/01/09 16:31:17;;;;;;;13.35;5.15;;;9.90;83.90;;;;;;5024856;28;20096;-78
2022/01/09 16:33:43;;;;;;;11.52;5.20;;;9.80;84.10;;;;;;5022711;28;20029;-79
2022/01/09 16:36:28;;;;;;;10.63;5.57;;;9.80;84.30;;;;;;5020467;28;20026;-78
2022/01/09 16:38:54;;;;;;;14.60;6.40;;;9.80;84.40;;;;;;5023436;28;20030;-79
2022/01/09 16:41:20;;;;;;;17.17;6.57;;;9.80;84.40;;;;;;5020716;28;20032;-79
2022/01/09 16:43:46;;;;;;;24.55;6.85;;;9.80;84.30;;;;;;5026704;28;20488;-78
2022/01/09 16:46:13;;;;;;;10.88;5.68;;;9.70;84.50;;;;;;5016640;28;20881;-77
2022/01/09 16:48:39;;;;;;;10.82;5.47;;;9.80;84.70;;;;;;5022693;28;20033;-78
2022/01/09 16:51:07;;;;;;;12.45;5.05;;;9.70;84.80;;;;;;5026792;28;20054;-79
2022/01/09 16:53:41;;;;;;;19.48;7.57;;;9.70;84.80;;;;;;5017601;28;20018;-79
2022/01/09 16:56:10;;;;;;;26.13;11.70;;;9.70;85.10;;;;;;5017741;28;20110;-79
2022/01/09 16:58:39;;;;;;;34.75;16.35;;;9.70;85.00;;;;;;5031967;28;20072;-79
2022/01/09 17:01:05;;;;;;;22.98;12.35;;;9.70;85.40;;;;;;5024343;28;20060;-80
2022/01/09 17:03:33;;;;;;;22.15;8.02;;;9.60;85.40;;;;;;5027470;28;20435;-81
2022/01/09 17:06:03;;;;;;;13.57;7.03;;;9.70;85.40;;;;;;5025176;28;20059;-81
2022/01/09 17:08:36;;;;;;;16.10;4.32;;;9.70;85.50;;;;;;5027847;28;20034;-81
2022/01/09 17:11:11;;;;;;;8.43;3.90;;;9.60;85.50;;;;;;5028305;28;20120;-80
2022/01/09 17:13:37;;;;;;;15.98;6.63;;;9.60;85.60;;;;;;5042936;28;20026;-80
2022/01/09 17:16:06;;;;;;;13.57;6.03;;;9.60;85.60;;;;;;5024778;28;20492;-81
2022/01/09 17:18:32;;;;;;;10.65;5.93;;;9.60;85.80;;;;;;5022737;28;20105;-80
2022/01/09 17:20:58;;;;;;;10.65;6.35;;;9.60;86.10;;;;;;5020182;28;20037;-81
2022/01/09 17:23:25;;;;;;;13.15;6.47;;;9.60;86.10;;;;;;5026597;28;20403;-79
2022/01/09 17:25:53;;;;;;;18.73;7.57;;;9.60;86.10;;;;;;5028179;28;20033;-81
2022/01/09 17:28:19;;;;;;;17.23;6.93;;;9.60;86.20;;;;;;5024014;28;20530;-80
2022/01/09 17:30:45;;;;;;;10.00;6.25;;;9.60;86.10;;;;;;5023380;28;20413;-80
2022/01/09 17:33:11;;;;;;;12.52;7.57;;;9.60;86.20;;;;;;5020694;28;20083;-80
2022/01/09 17:35:36;;;;;;;14.45;8.35;;;9.50;86.40;;;;;;5024540;28;20029;-81
2022/01/09 17:38:07;;;;;;;14.98;7.10;;;9.50;86.30;;;;;;5027244;28;20033;-80
2022/01/09 17:40:32;;;;;;;11.63;6.40;;;9.50;86.40;;;;;;5027513;28;20026;-80
2022/01/09 17:43:02;;;;;;;16.33;8.73;;;9.50;86.50;;;;;;5024784;28;20535;-81
2022/01/09 17:45:28;;;;;;;16.40;9.10;;;9.50;86.50;;;;;;5042377;28;20406;-81
2022/01/09 17:47:54;;;;;;;13.05;8.52;;;9.60;86.50;;;;;;5026381;28;20033;-79
2022/01/09 17:50:22;;;;;;;24.63;11.85;;;9.60;86.50;;;;;;5026773;28;20096;-79
2022/01/09 17:52:48;;;;;;;24.55;11.80;;;9.60;86.40;;;;;;5025441;28;20033;-80
2022/01/09 17:55:15;;;;;;;19.75;9.50;;;9.60;86.50;;;;;;5027080;28;20021;-80
2022/01/09 17:57:41;;;;;;;19.45;9.20;;;9.60;86.60;;;;;;5028426;28;20036;-79
2022/01/09 18:00:09;;;;;;;18.45;10.88;;;9.50;86.80;;;;;;5033504;28;20037;-79
2022/01/09 18:02:35;;;;;;;16.45;9.77;;;9.50;87.00;;;;;;5038620;28;20132;-79
2022/01/09 18:05:01;;;;;;;14.48;8.95;;;9.50;87.00;;;;;;5037063;28;20487;-78
2022/01/09 18:07:26;;;;;;;16.55;7.60;;;9.50;87.00;;;;;;5027839;28;20446;-79
2022/01/09 18:09:52;;;;;;;16.35;7.65;;;9.50;87.00;;;;;;5026354;28;20041;-79
2022/01/09 18:12:19;;;;;;;18.38;8.00;;;9.50;86.90;;;;;;5021546;28;20415;-78
2022/01/09 18:14:47;;;;;;;19.85;8.20;;;9.50;86.60;;;;;;5030892;28;20032;-81
2022/01/09 18:17:13;;;;;;;17.70;8.43;;;9.50;86.60;;;;;;5035476;28;20028;-81
2022/01/09 18:19:39;;;;;;;20.20;10.27;;;9.50;86.80;;;;;;5028948;28;20029;-80
2022/01/09 18:22:06;;;;;;;20.95;11.30;;;9.50;87.10;;;;;;5026365;28;20040;-82
2022/01/09 18:24:57;;;;;;;22.20;10.20;;;9.50;87.20;;;;;;5027910;28;20021;-81
2022/01/09 18:27:23;;;;;;;24.20;11.00;;;9.50;87.40;;;;;;5023778;28;20069;-84
2022/01/09 18:29:49;;;;;;;21.75;13.95;;;9.50;87.30;;;;;;5028045;28;20083;-81
2022/01/09 18:32:15;;;;;;;16.73;11.20;;;9.60;87.00;;;;;;5030746;28;20029;-80
2022/01/09 18:34:40;;;;;;;26.27;13.23;;;9.60;86.90;;;;;;5032088;28;20021;-80
2022/01/09 18:37:06;;;;;;;20.88;13.18;;;9.60;86.60;;;;;;5029998;28;20033;-80
2022/01/09 18:39:33;;;;;;;24.63;13.10;;;9.60;86.70;;;;;;5029114;28;20025;-80
2022/01/09 18:41:59;;;;;;;28.73;13.80;;;9.60;86.80;;;;;;5030827;28;20113;-83
2022/01/09 18:44:28;;;;;;;21.42;12.88;;;9.60;86.80;;;;;;5023288;28;20021;-85
2022/01/09 18:47:01;;;;;;;34.72;13.63;;;9.60;87.00;;;;;;5024212;28;20484;-78
2022/01/09 18:49:28;;;;;;;31.00;15.57;;;9.60;87.10;;;;;;5024552;28;20030;-81
2022/01/09 18:51:54;;;;;;;28.15;13.85;;;9.60;86.90;;;;;;5026291;28;20030;-77
2022/01/09 18:54:20;;;;;;;22.23;14.25;;;9.60;87.00;;;;;;5026832;28;20105;-81
2022/01/09 18:56:46;;;;;;;30.20;14.43;;;9.60;87.00;;;;;;5027635;28;20053;-87
2022/01/09 18:59:12;;;;;;;30.30;16.48;;;9.60;87.10;;;;;;5031281;28;20116;-83
2022/01/09 19:01:37;;;;;;;26.65;16.00;;;9.60;87.00;;;;;;5022055;28;20392;-84
2022/01/09 19:04:19;;;;;;;29.90;15.25;;;9.60;87.10;;;;;;5028355;28;20038;-85
2022/01/09 19:06:47;;;;;;;34.88;17.23;;;9.60;86.90;;;;;;5036445;28;20705;-82
2022/01/09 19:09:13;;;;;;;36.13;20.23;;;9.50;87.50;;;;;;5039099;28;20087;-78
2022/01/09 19:11:39;;;;;;;42.35;20.58;;;9.50;87.30;;;;;;5030943;28;20137;-84
2022/01/09 19:14:05;;;;;;;41.88;21.95;;;9.50;87.60;;;;;;5021542;28;20050;-87
2022/01/09 19:16:31;;;;;;;35.78;20.67;;;9.50;87.80;;;;;;5034092;28;20025;-86
2022/01/09 19:18:59;;;;;;;31.63;18.77;;;9.50;87.50;;;;;;5022028;28;20105;-87
2022/01/09 19:21:29;;;;;;;39.03;23.17;;;9.50;87.70;;;;;;5030848;28;20072;-84
2022/01/09 19:23:54;;;;;;;46.33;26.08;;;9.60;87.50;;;;;;5030546;28;20072;-90
2022/01/09 19:26:20;;;;;;;45.05;25.48;;;9.50;87.70;;;;;;5021160;28;20034;-88
2022/01/09 19:28:45;;;;;;;61.50;30.13;;;9.40;87.80;;;;;;5029759;28;20111;-89
2022/01/09 19:31:11;;;;;;;50.65;26.38;;;9.40;88.10;;;;;;5028566;28;20049;-88
2022/01/09 19:33:37;;;;;;;57.63;32.80;;;9.40;87.90;;;;;;5029965;28;20013;-89
2022/01/09 19:36:03;;;;;;;52.17;30.90;;;9.40;88.10;;;;;;5035362;28;20044;-84
2022/01/09 19:38:29;;;;;;;47.15;26.42;;;9.40;87.90;;;;;;5032954;28;20038;-86
2022/01/09 19:40:55;;;;;;;49.28;26.67;;;9.40;87.70;;;;;;5028459;28;20051;-81
2022/01/09 19:43:21;;;;;;;40.38;24.58;;;9.40;87.90;;;;;;5014443;28;20610;-85
2022/01/09 19:45:47;;;;;;;60.20;28.92;;;9.50;87.80;;;;;;5026483;28;20090;-83
2022/01/09 19:48:12;;;;;;;57.63;28.23;;;9.50;87.70;;;;;;5027473;28;20026;-82
2022/01/09 19:50:38;;;;;;;46.08;26.48;;;9.50;87.60;;;;;;5028313;28;20045;-85
2022/01/09 19:53:04;;;;;;;51.65;27.15;;;9.50;87.40;;;;;;5023952;28;20022;-76
2022/01/09 19:55:30;;;;;;;48.95;27.73;;;9.50;87.50;;;;;;5022664;28;20105;-81
2022/01/09 19:57:56;;;;;;;47.45;27.75;;;9.60;87.40;;;;;;5021493;28;20583;-77
2022/01/09 20:00:22;;;;;;;46.80;29.60;;;9.50;87.40;;;;;;5020318;28;20029;-78
2022/01/09 20:02:50;;;;;;;51.22;29.52;;;9.50;87.30;;;;;;5023366;28;20479;-78
2022/01/09 20:05:17;;;;;;;60.53;28.75;;;9.50;87.40;;;;;;5017917;28;20025;-76
2022/01/09 20:07:44;;;;;;;54.63;31.23;;;9.50;87.30;;;;;;5022809;28;20113;-78
2022/01/09 20:10:12;;;;;;;53.00;30.52;;;9.50;87.50;;;;;;5018079;28;20053;-77
2022/01/09 20:12:40;;;;;;;61.05;32.08;;;9.50;87.50;;;;;;5018515;28;20507;-76
2022/01/09 20:15:08;;;;;;;61.15;32.28;;;9.50;87.30;;;;;;5020554;28;20025;-77
2022/01/09 20:17:34;;;;;;;57.63;31.13;;;9.60;87.40;;;;;;5018651;28;20045;-76
2022/01/09 20:20:01;;;;;;;51.63;29.58;;;9.60;87.30;;;;;;5020397;28;20033;-76
2022/01/09 20:22:26;;;;;;;53.08;30.33;;;9.60;87.20;;;;;;5030488;28;20029;-77
2022/01/09 20:24:52;;;;;;;71.05;36.22;;;9.60;87.20;;;;;;5024271;28;20021;-76
2022/01/09 20:27:18;;;;;;;62.13;32.47;;;9.60;87.10;;;;;;5028208;28;20033;-77
2022/01/09 20:29:44;;;;;;;59.67;32.08;;;9.50;87.40;;;;;;5026899;28;20069;-76
2022/01/09 20:32:10;;;;;;;59.53;33.58;;;9.50;87.30;;;;;;5028190;28;20025;-76
2022/01/09 20:34:37;;;;;;;54.42;31.20;;;9.50;87.50;;;;;;5030091;28;20060;-76
2022/01/09 20:37:03;;;;;;;48.55;29.52;;;9.50;87.50;;;;;;5033755;28;20460;-76
2022/01/09 20:39:29;;;;;;;52.17;31.23;;;9.50;87.50;;;;;;5027195;28;20096;-76
2022/01/09 20:41:57;;;;;;;67.32;39.75;;;9.50;87.50;;;;;;5030221;28;20022;-76
2022/01/09 20:44:24;;;;;;;62.95;35.25;;;9.60;87.50;;;;;;5030975;28;20021;-76
2022/01/09 20:46:52;;;;;;;60.72;32.60;;;9.60;87.40;;;;;;5030026;28;20033;-78
2022/01/09 20:49:21;;;;;;;54.47;28.73;;;9.60;87.40;;;;;;5020671;28;20033;-78
2022/01/09 20:51:51;;;;;;;50.22;28.58;;;9.50;87.40;;;;;;5019300;28;20030;-77
2022/01/09 20:54:18;;;;;;;;;;;9.60;87.60;;;;;;5017932;28;20026;-77
2022/01/09 20:56:44;;;;;;;48.42;24.08;;;9.60;87.50;;;;;;5013153;28;19909;-77